Aeroporto :
LOGIN :

Iscrizione | Disclaimer

   EN    FR    IT 

 










Sommario :    VFR   VFR Marginale   IFR   IFR Intensivo   IFR Molto Intensivo
Visibilità : 
Base nubi : 
>= 8 km
>= 3000ft
5 / 8 km
1000 / 3000 ft
1500m / 5 km
500 / 1000 ft
800 / 1500m
200 / 500 ft
< 800m
< 200 ft
Simboli :   Temporali  Nebbia  Neve Forte  Precipitazioni Forti  Vento > 20 kt
SIGMETs :   Varie  Temporali  Ghiacco  Turbolenza  Onda orograficha  Ceneri Vulcaniche






- Altitudine del aeroporto : 383 ft
- Codice IATA : UDJ


UKLU - Uzhhorod

ULTIMO METAR :
  • 230700Z 00000MPS 8000 NSC 10/10 Q1023 R10/090070 NOSIG

METARs OBSOLETI :
  • 230630Z 00000MPS 4500 BR NSC 06/06 Q1023 R10/090070 NOSIG
  • 230600Z 00000MPS 2000 0250SW PRFG NSC 06/06 Q1023 R10/090070 NOSIG
  • 230530Z 00000MPS 0300 FG NSC 06/06 Q1023 R10/090070 NOSIG
  • 230500Z 00000MPS 1600 0050SW PRFG NSC 06/06 Q1023 R10/090070 NOSIG
  • 230430Z 00000MPS 0700 0100SW FG NSC 07/07 Q1023 R10/090070 NOSIG

TAF COR TAF UKLU
Valido dal 23 a 06 ore il 23 a 15 ore UTC


230512Z 2306/2315 VRB01MPS 2100 BR NSC
TEMPO 2306/2308 1000 MIFG BR SCT003
BECMG 2308/2310 9999 NSW SCT040



MetMap, La meteo Aeronautica in un colpo d'occhio ! - Copyright ORBIFLY Dicembre 2007 - Disclaimer

ORBIFLY MET'MAP TEAM :

Programmazione e sviluppo : Alexandra Zaïnal
Concezione e sviluppo : Baudouin d'Aumeries
Co-Programmazione e sviluppo : Marc-Olivier Méhu
Supporto tecnico e logistico : Manuel Goepfert
Aiuto per la traduzione : Arnaldo La Scala

Contatto : metmap@orbifly.com




FONTI E CREDITI :

   NOAA